Time;durP1;ratioP1;P1;durP2;ratioP2;P2;SDS_P1;SDS_P2;PMS_P1;PMS_P2;Temp;Humidity;BMP_temperature;BMP_pressure;BME280_temperature;BME280_humidity;BME280_pressure;Samples;Min_cycle;Max_cycle;Signal;HPM_P1;HPM_P2
2020/12/30 00:01:32;;;;;;;20.30;18.60;;;3.30;99.90;;;;;;5120999;27;20571;-76
2020/12/30 00:03:58;;;;;;;20.03;18.40;;;3.30;99.90;;;;;;5114119;28;20510;-77
2020/12/30 00:06:25;;;;;;;20.83;18.67;;;3.30;99.90;;;;;;5115338;28;20456;-77
2020/12/30 00:08:52;;;;;;;21.03;19.10;;;3.40;99.90;;;;;;5126104;28;20467;-76
2020/12/30 00:11:19;;;;;;;19.37;17.70;;;3.40;99.90;;;;;;5121532;28;20464;-78
2020/12/30 00:13:45;;;;;;;20.43;18.33;;;3.40;99.90;;;;;;5119962;28;20803;-76
2020/12/30 00:16:11;;;;;;;19.80;18.10;;;3.30;99.90;;;;;;5125108;27;20798;-75
2020/12/30 00:18:39;;;;;;;20.00;18.10;;;3.30;99.90;;;;;;5120787;28;20465;-77
2020/12/30 00:21:06;;;;;;;20.73;18.70;;;3.30;99.90;;;;;;5122518;28;21074;-77
2020/12/30 00:23:35;;;;;;;19.30;17.80;;;3.40;99.90;;;;;;5130495;27;20509;-75
2020/12/30 00:26:01;;;;;;;20.60;18.80;;;3.40;99.90;;;;;;5119485;27;20486;-77
2020/12/30 00:28:29;;;;;;;19.33;17.53;;;3.40;99.90;;;;;;5122924;27;20852;-78
2020/12/30 00:30:55;;;;;;;20.03;18.43;;;3.40;99.90;;;;;;5128305;27;20461;-76
2020/12/30 00:33:22;;;;;;;19.30;17.67;;;3.40;99.90;;;;;;5124948;27;20491;-76
2020/12/30 00:35:48;;;;;;;19.93;18.03;;;3.30;99.90;;;;;;5123515;27;20517;-76
2020/12/30 00:38:15;;;;;;;20.17;18.10;;;3.40;99.90;;;;;;5124809;27;20994;-76
2020/12/30 00:40:42;;;;;;;22.23;19.90;;;3.30;99.90;;;;;;5119518;27;20975;-76
2020/12/30 00:43:09;;;;;;;21.17;19.00;;;3.40;99.90;;;;;;5127866;27;20457;-75
2020/12/30 00:45:35;;;;;;;20.10;18.47;;;3.40;99.90;;;;;;5129089;27;20451;-78
2020/12/30 00:48:02;;;;;;;21.73;19.40;;;3.40;99.90;;;;;;5125309;27;20993;-77
2020/12/30 00:50:28;;;;;;;21.93;19.73;;;3.40;99.90;;;;;;5123366;27;20497;-77
2020/12/30 00:52:54;;;;;;;22.10;19.80;;;3.30;99.90;;;;;;5126969;27;20506;-75
2020/12/30 00:55:21;;;;;;;21.63;19.53;;;3.40;99.90;;;;;;5120358;27;21009;-76
2020/12/30 00:57:51;;;;;;;22.40;20.40;;;3.40;99.90;;;;;;5128539;27;20461;-76
2020/12/30 01:00:18;;;;;;;21.00;19.17;;;3.40;99.90;;;;;;5125834;27;20461;-76
2020/12/30 01:02:44;;;;;;;21.00;19.30;;;3.40;99.90;;;;;;5131540;27;20463;-75
2020/12/30 01:05:13;;;;;;;22.27;20.07;;;3.40;99.90;;;;;;5126286;27;20464;-75
2020/12/30 01:07:40;;;;;;;22.03;19.90;;;3.40;99.90;;;;;;5123819;27;20871;-76
2020/12/30 01:10:09;;;;;;;22.57;20.40;;;3.30;99.90;;;;;;5125359;27;20461;-75
2020/12/30 01:12:38;;;;;;;23.03;20.87;;;3.30;99.90;;;;;;5116549;27;20463;-77
2020/12/30 01:15:06;;;;;;;23.40;21.40;;;3.30;99.90;;;;;;5127896;27;20966;-77
2020/12/30 01:17:32;;;;;;;22.73;20.73;;;3.30;99.90;;;;;;5128015;27;20495;-75
2020/12/30 01:20:00;;;;;;;23.10;21.20;;;3.30;99.90;;;;;;5123882;27;20463;-77
2020/12/30 01:22:26;;;;;;;22.50;20.60;;;3.30;99.90;;;;;;5123638;27;20481;-77
2020/12/30 01:24:54;;;;;;;22.97;20.17;;;3.30;99.90;;;;;;5126700;27;20456;-75
2020/12/30 01:27:20;;;;;;;22.93;20.93;;;3.30;99.90;;;;;;5123443;27;20461;-75
2020/12/30 01:29:48;;;;;;;22.60;20.80;;;3.30;99.90;;;;;;5123744;27;20461;-77
2020/12/30 01:32:17;;;;;;;23.00;21.00;;;3.30;99.90;;;;;;5127206;27;20456;-76
2020/12/30 01:34:43;;;;;;;22.67;20.77;;;3.30;99.90;;;;;;5121249;27;20444;-76
2020/12/30 01:37:09;;;;;;;23.00;21.10;;;3.30;99.90;;;;;;5123421;27;20464;-76
2020/12/30 01:39:36;;;;;;;20.87;19.20;;;3.30;99.90;;;;;;5126891;27;20858;-78
2020/12/30 01:42:02;;;;;;;21.67;19.97;;;3.30;99.90;;;;;;5124211;27;20995;-77
2020/12/30 01:44:29;;;;;;;25.97;23.50;;;3.20;99.90;;;;;;5124765;27;20465;-75
2020/12/30 01:46:56;;;;;;;25.73;23.03;;;3.20;99.90;;;;;;5126669;27;20467;-77
2020/12/30 01:49:24;;;;;;;23.53;21.33;;;3.30;99.90;;;;;;5123201;27;20452;-75
2020/12/30 01:51:52;;;;;;;24.70;22.30;;;3.20;99.90;;;;;;5121984;27;20544;-75
2020/12/30 01:54:20;;;;;;;24.17;21.80;;;3.10;99.90;;;;;;5124340;27;20475;-75
2020/12/30 01:56:47;;;;;;;24.70;22.40;;;3.10;99.90;;;;;;5124967;27;20611;-77
2020/12/30 01:59:16;;;;;;;26.83;24.03;;;3.00;99.90;;;;;;5123210;27;20480;-77
2020/12/30 02:01:45;;;;;;;28.03;24.53;;;3.00;99.90;;;;;;5122990;27;20488;-77
2020/12/30 02:04:15;;;;;;;25.47;23.40;;;2.90;99.90;;;;;;5120293;27;20492;-75
2020/12/30 02:06:42;;;;;;;28.37;25.53;;;2.70;99.90;;;;;;5119475;27;20472;-78
2020/12/30 02:09:10;;;;;;;27.23;24.70;;;2.70;99.90;;;;;;5125976;27;20467;-75
2020/12/30 02:11:36;;;;;;;27.13;24.43;;;2.60;99.90;;;;;;5121750;27;20504;-77
2020/12/30 02:14:06;;;;;;;26.30;23.87;;;2.50;99.90;;;;;;5121115;27;20544;-75
2020/12/30 02:16:45;;;;;;;25.83;23.33;;;2.40;99.90;;;;;;5116041;27;20468;-76
2020/12/30 02:19:11;;;;;;;26.90;24.20;;;2.30;99.90;;;;;;5124416;27;20462;-78
2020/12/30 02:21:38;;;;;;;26.33;23.80;;;2.20;99.90;;;;;;5125542;27;20487;-75
2020/12/30 02:24:06;;;;;;;24.57;22.17;;;2.20;99.90;;;;;;5122926;27;20448;-78
2020/12/30 02:26:33;;;;;;;26.00;22.20;;;2.20;99.90;;;;;;5124054;27;20489;-76
2020/12/30 02:28:59;;;;;;;26.60;23.77;;;2.20;99.90;;;;;;5123593;27;20453;-76
2020/12/30 02:31:28;;;;;;;27.33;22.83;;;2.20;99.90;;;;;;5120703;27;20469;-76
2020/12/30 02:33:55;;;;;;;25.33;22.93;;;2.20;99.90;;;;;;5123706;27;20694;-78
2020/12/30 02:36:22;;;;;;;25.53;23.13;;;2.20;99.90;;;;;;5121637;27;20795;-76
2020/12/30 02:38:53;;;;;;;26.20;23.60;;;2.10;99.90;;;;;;5125682;27;21015;-78
2020/12/30 02:41:19;;;;;;;24.97;22.53;;;2.00;99.90;;;;;;5122118;27;20543;-76
2020/12/30 02:43:47;;;;;;;27.30;23.97;;;2.00;99.90;;;;;;5120568;27;20453;-78
2020/12/30 02:46:15;;;;;;;25.47;22.90;;;1.90;99.90;;;;;;5125770;27;20546;-76
2020/12/30 02:48:41;;;;;;;23.93;21.53;;;1.90;99.90;;;;;;5122914;27;20486;-77
2020/12/30 02:51:09;;;;;;;26.33;23.17;;;1.90;99.90;;;;;;5118449;27;20867;-75
2020/12/30 02:53:36;;;;;;;26.07;23.30;;;1.90;99.90;;;;;;5122652;27;20467;-75
2020/12/30 02:56:03;;;;;;;26.63;24.03;;;1.90;99.90;;;;;;5125289;27;20970;-75
2020/12/30 02:58:29;;;;;;;27.00;24.30;;;1.90;99.90;;;;;;5120924;27;20468;-74
2020/12/30 03:00:57;;;;;;;27.03;24.30;;;1.90;99.90;;;;;;5130699;27;20490;-78
2020/12/30 03:03:25;;;;;;;27.60;24.10;;;1.80;99.90;;;;;;5125156;27;20464;-75
2020/12/30 03:05:54;;;;;;;26.90;23.97;;;1.80;99.90;;;;;;5124004;27;20491;-75
2020/12/30 03:08:20;;;;;;;30.87;24.60;;;1.70;99.90;;;;;;5120174;27;20553;-76
2020/12/30 03:10:46;;;;;;;28.13;25.13;;;1.60;99.90;;;;;;5124113;27;20452;-76
2020/12/30 03:13:13;;;;;;;27.80;24.83;;;1.60;99.90;;;;;;5123617;27;20463;-78
2020/12/30 03:15:41;;;;;;;26.30;23.63;;;1.50;99.90;;;;;;5123448;27;20985;-77
2020/12/30 03:18:09;;;;;;;28.73;25.73;;;1.30;99.90;;;;;;5124127;27;20607;-78
2020/12/30 03:20:36;;;;;;;31.40;26.20;;;1.30;99.90;;;;;;5123923;27;20463;-75
2020/12/30 03:23:03;;;;;;;27.50;24.80;;;1.40;99.90;;;;;;5120559;27;20493;-76
2020/12/30 03:25:29;;;;;;;28.97;26.00;;;1.30;99.90;;;;;;5127883;27;20474;-75
2020/12/30 03:27:58;;;;;;;28.67;25.77;;;1.20;99.90;;;;;;5125077;27;20455;-78
2020/12/30 03:30:24;;;;;;;30.27;27.20;;;1.10;99.90;;;;;;5122135;27;20458;-75
2020/12/30 03:32:51;;;;;;;27.10;24.60;;;1.10;99.90;;;;;;5127683;27;20452;-75
2020/12/30 03:35:20;;;;;;;30.80;25.30;;;1.20;99.90;;;;;;5114992;27;20463;-78
2020/12/30 03:37:46;;;;;;;26.90;24.30;;;1.20;99.90;;;;;;5124448;27;20946;-78
2020/12/30 03:40:13;;;;;;;26.53;23.83;;;1.10;99.90;;;;;;5126227;27;20510;-77
2020/12/30 03:42:40;;;;;;;27.13;24.57;;;1.10;99.90;;;;;;5117685;27;20513;-74
2020/12/30 03:45:07;;;;;;;28.53;25.67;;;1.00;99.90;;;;;;5119776;27;20469;-76
2020/12/30 03:47:34;;;;;;;29.10;26.20;;;0.90;99.90;;;;;;5120834;27;20449;-77
2020/12/30 03:50:00;;;;;;;27.93;25.20;;;0.90;99.90;;;;;;5123403;27;20456;-76
2020/12/30 03:52:27;;;;;;;28.57;25.57;;;0.80;99.90;;;;;;5116369;28;20462;-78
2020/12/30 03:54:53;;;;;;;27.73;24.97;;;0.80;99.90;;;;;;5125505;28;20463;-75
2020/12/30 03:57:20;;;;;;;28.53;25.60;;;0.80;99.90;;;;;;5125178;27;20467;-75
2020/12/30 03:59:46;;;;;;;28.83;25.50;;;0.80;99.90;;;;;;5126767;27;20461;-76
2020/12/30 04:02:13;;;;;;;27.10;24.33;;;0.80;99.90;;;;;;5135718;27;20539;-78
2020/12/30 04:04:39;;;;;;;28.97;24.73;;;0.90;99.90;;;;;;5123826;27;20471;-78
2020/12/30 04:07:05;;;;;;;27.60;24.83;;;0.90;99.90;;;;;;5130970;27;20461;-78
2020/12/30 04:09:32;;;;;;;34.90;26.67;;;0.90;99.90;;;;;;5132033;27;20819;-75
2020/12/30 04:11:59;;;;;;;28.73;25.63;;;0.90;99.90;;;;;;5131771;27;20466;-76
2020/12/30 04:14:26;;;;;;;28.53;25.37;;;1.00;99.90;;;;;;5129827;27;20493;-75
2020/12/30 04:16:54;;;;;;;28.70;25.70;;;1.00;99.90;;;;;;5128177;27;20457;-76
2020/12/30 04:19:21;;;;;;;27.53;24.53;;;1.00;99.90;;;;;;5132189;27;20460;-77
2020/12/30 04:21:48;;;;;;;27.47;24.70;;;1.00;99.90;;;;;;5128545;27;20471;-78
2020/12/30 04:24:16;;;;;;;28.87;25.47;;;1.10;99.90;;;;;;5124145;27;20485;-76
2020/12/30 04:26:44;;;;;;;31.53;25.83;;;1.10;99.90;;;;;;5124076;27;20524;-77
2020/12/30 04:29:11;;;;;;;28.13;25.17;;;1.20;99.90;;;;;;5125239;27;20850;-76
2020/12/30 04:31:38;;;;;;;28.57;25.57;;;1.20;99.90;;;;;;5138952;27;20569;-74
2020/12/30 04:34:05;;;;;;;30.20;27.20;;;1.30;99.90;;;;;;5130111;27;20456;-77
2020/12/30 04:36:32;;;;;;;29.80;26.53;;;1.30;99.90;;;;;;5130274;27;20455;-76
2020/12/30 04:38:58;;;;;;;29.90;25.97;;;1.40;99.90;;;;;;5126153;27;20484;-74
2020/12/30 04:41:33;;;;;;;29.73;26.50;;;1.40;99.90;;;;;;5127108;27;20499;-75
2020/12/30 04:44:02;;;;;;;28.93;25.87;;;1.50;99.90;;;;;;5128699;27;20462;-75
2020/12/30 04:46:29;;;;;;;28.67;25.10;;;1.50;99.90;;;;;;5127023;27;20888;-76
2020/12/30 04:48:58;;;;;;;29.70;25.87;;;1.50;99.90;;;;;;5126411;27;20455;-77
2020/12/30 04:51:25;;;;;;;31.00;27.23;;;1.50;99.90;;;;;;5122745;27;20870;-76
2020/12/30 04:53:57;;;;;;;30.67;27.00;;;1.50;99.90;;;;;;5128045;27;20458;-75
2020/12/30 04:56:44;;;;;;;30.37;27.10;;;1.50;99.90;;;;;;5122305;27;20512;-77
2020/12/30 04:59:13;;;;;;;32.70;26.17;;;1.60;99.90;;;;;;5119979;27;21114;-78
2020/12/30 05:01:59;;;;;;;31.90;27.67;;;1.70;99.90;;;;;;5135187;27;20497;-76
2020/12/30 05:04:28;;;;;;;31.80;26.67;;;1.70;99.90;;;;;;5122673;27;20964;-75
2020/12/30 05:06:59;;;;;;;36.37;28.30;;;1.70;99.90;;;;;;5127154;27;20522;-78
2020/12/30 05:09:31;;;;;;;37.93;29.50;;;1.70;99.90;;;;;;5118639;27;20462;-76
2020/12/30 05:11:57;;;;;;;40.90;29.13;;;1.80;99.90;;;;;;5119955;27;20946;-75
2020/12/30 05:14:25;;;;;;;36.70;29.50;;;1.90;99.90;;;;;;5122458;27;20978;-74
2020/12/30 05:16:51;;;;;;;37.70;30.20;;;1.90;99.90;;;;;;5127943;27;20455;-76
2020/12/30 05:19:17;;;;;;;35.27;28.43;;;1.90;99.90;;;;;;5119540;27;20950;-77
2020/12/30 05:21:45;;;;;;;33.80;29.20;;;2.00;99.90;;;;;;5126099;27;20487;-77
2020/12/30 05:24:13;;;;;;;40.57;30.47;;;2.00;99.90;;;;;;5126650;27;20813;-75
2020/12/30 05:26:41;;;;;;;33.13;28.57;;;2.00;99.90;;;;;;5120438;27;20594;-77
2020/12/30 05:29:08;;;;;;;31.33;25.90;;;2.00;99.90;;;;;;5127368;27;20457;-74
2020/12/30 05:31:36;;;;;;;38.33;29.00;;;2.00;99.90;;;;;;5118842;27;20528;-78
2020/12/30 05:34:03;;;;;;;36.03;28.23;;;2.00;99.90;;;;;;5127880;27;20491;-74
2020/12/30 05:36:30;;;;;;;35.17;28.70;;;2.00;99.90;;;;;;5120812;27;20456;-75
2020/12/30 05:38:57;;;;;;;32.07;28.43;;;2.00;99.90;;;;;;5127864;27;20488;-77
2020/12/30 05:41:23;;;;;;;30.70;27.17;;;1.90;99.90;;;;;;5123255;27;20987;-75
2020/12/30 05:43:50;;;;;;;36.73;28.50;;;1.90;99.90;;;;;;5124760;27;20471;-76
2020/12/30 05:46:34;;;;;;;33.00;28.83;;;1.80;99.90;;;;;;5130355;27;20459;-77
2020/12/30 05:49:04;;;;;;;33.70;27.00;;;1.70;99.90;;;;;;5116336;27;20817;-78
2020/12/30 05:51:30;;;;;;;38.60;29.50;;;1.60;99.90;;;;;;5126533;27;20970;-75
2020/12/30 05:54:11;;;;;;;34.20;29.20;;;1.60;99.90;;;;;;5125320;27;20802;-76
2020/12/30 05:56:38;;;;;;;41.43;31.13;;;1.50;99.90;;;;;;5127993;27;20448;-74
2020/12/30 05:59:06;;;;;;;36.73;29.53;;;1.50;99.90;;;;;;5123899;27;20460;-77
2020/12/30 06:01:36;;;;;;;34.60;29.50;;;1.50;99.90;;;;;;5126129;27;20479;-77
2020/12/30 06:04:19;;;;;;;37.53;31.10;;;1.40;99.90;;;;;;5121491;27;20456;-77
2020/12/30 06:06:46;;;;;;;37.30;31.87;;;1.40;99.90;;;;;;5118458;27;20457;-78
2020/12/30 06:09:17;;;;;;;36.97;30.47;;;1.40;99.90;;;;;;5128052;27;20505;-75
2020/12/30 06:11:51;;;;;;;41.20;31.60;;;1.40;99.90;;;;;;5128756;27;20468;-77
2020/12/30 06:14:19;;;;;;;36.27;31.87;;;1.30;99.90;;;;;;5125235;27;20471;-75
2020/12/30 06:16:45;;;;;;;36.20;30.87;;;1.30;99.90;;;;;;5124125;27;20521;-76
2020/12/30 06:19:13;;;;;;;40.83;33.03;;;1.30;99.90;;;;;;5125919;27;20466;-78
2020/12/30 06:21:46;;;;;;;35.80;31.40;;;1.30;99.90;;;;;;5117203;27;20485;-78
2020/12/30 06:24:15;;;;;;;35.93;30.83;;;1.30;99.90;;;;;;5122599;27;20954;-75
2020/12/30 06:26:43;;;;;;;37.60;30.37;;;1.30;99.90;;;;;;5127991;27;20459;-76
2020/12/30 06:29:13;;;;;;;36.17;30.87;;;1.20;99.90;;;;;;5123792;27;21011;-75
2020/12/30 06:31:44;;;;;;;40.90;31.90;;;1.20;99.90;;;;;;5123347;27;20948;-75
2020/12/30 06:34:12;;;;;;;37.30;30.80;;;1.20;99.90;;;;;;5123058;27;20457;-76
2020/12/30 06:36:39;;;;;;;43.73;32.80;;;1.30;99.90;;;;;;5120235;27;20489;-74
2020/12/30 06:39:20;;;;;;;39.20;29.87;;;1.50;99.90;;;;;;5125783;27;20480;-75
2020/12/30 06:41:58;;;;;;;37.40;31.50;;;1.60;99.90;;;;;;5126135;27;20498;-76
2020/12/30 06:44:39;;;;;;;43.23;30.70;;;1.70;99.90;;;;;;5118325;27;20460;-75
2020/12/30 06:47:07;;;;;;;39.60;30.60;;;1.70;99.90;;;;;;5126738;27;21133;-78
2020/12/30 06:49:36;;;;;;;36.17;30.27;;;1.80;99.90;;;;;;5122611;27;20468;-76
2020/12/30 06:52:22;;;;;;;35.00;30.67;;;1.70;99.90;;;;;;5120628;27;20483;-76
2020/12/30 06:54:50;;;;;;;42.33;32.70;;;1.80;99.90;;;;;;5116290;27;20467;-78
2020/12/30 06:57:39;;;;;;;41.13;30.20;;;1.80;99.90;;;;;;5124419;27;20469;-75
2020/12/30 07:00:39;;;;;;;40.50;30.70;;;1.80;99.90;;;;;;5123924;27;20449;-76
2020/12/30 07:03:15;;;;;;;39.53;31.80;;;1.80;99.90;;;;;;5035008;28;20484;-74
2020/12/30 07:05:43;;;;;;;44.00;31.83;;;1.70;99.90;;;;;;5041071;28;20469;-76
2020/12/30 07:08:10;;;;;;;46.17;32.47;;;1.70;99.90;;;;;;5085646;27;20460;-76
2020/12/30 07:10:47;;;;;;;45.40;32.13;;;1.70;99.90;;;;;;5119295;27;20463;-78
2020/12/30 07:13:27;;;;;;;42.37;30.90;;;1.70;99.90;;;;;;5121604;27;20455;-78
2020/12/30 07:16:19;;;;;;;35.20;30.13;;;1.70;99.90;;;;;;5122932;27;20527;-77
2020/12/30 07:18:49;;;;;;;43.50;32.33;;;1.80;99.90;;;;;;5115251;27;20469;-77
2020/12/30 07:21:17;;;;;;;37.80;30.23;;;1.80;99.90;;;;;;5123431;27;20484;-74
2020/12/30 07:23:46;;;;;;;38.70;31.00;;;1.80;99.90;;;;;;5125825;27;20462;-75
2020/12/30 07:26:18;;;;;;;48.07;32.60;;;1.90;99.90;;;;;;5119497;27;20450;-76
2020/12/30 07:28:45;;;;;;;44.27;32.70;;;2.00;99.90;;;;;;5119258;27;20465;-76
2020/12/30 07:31:12;;;;;;;49.43;34.13;;;2.10;99.90;;;;;;5112441;27;20455;-75
2020/12/30 07:33:38;;;;;;;45.00;31.20;;;2.10;99.90;;;;;;5116560;27;20455;-77
2020/12/30 07:36:06;;;;;;;44.43;34.50;;;2.00;99.90;;;;;;5125306;27;20611;-76
2020/12/30 07:38:34;;;;;;;44.10;32.83;;;2.10;99.90;;;;;;5123180;27;20499;-76
2020/12/30 07:41:08;;;;;;;44.10;33.47;;;2.00;99.90;;;;;;5117941;27;20485;-75
2020/12/30 07:43:52;;;;;;;44.03;33.97;;;2.10;99.90;;;;;;5115186;27;20458;-74
2020/12/30 07:46:20;;;;;;;50.50;35.23;;;2.20;99.90;;;;;;5118758;27;20451;-75
2020/12/30 07:48:46;;;;;;;48.53;35.70;;;2.30;99.90;;;;;;5124542;27;20467;-74
2020/12/30 07:51:14;;;;;;;44.43;32.70;;;2.30;99.90;;;;;;5120000;27;20475;-78
2020/12/30 07:53:41;;;;;;;48.40;34.70;;;2.30;99.90;;;;;;5121464;28;20475;-74
2020/12/30 07:56:21;;;;;;;49.10;34.60;;;2.40;99.90;;;;;;5116641;28;20468;-76
2020/12/30 07:58:48;;;;;;;47.27;35.03;;;2.40;99.90;;;;;;5117177;28;20460;-74
2020/12/30 08:01:18;;;;;;;48.70;34.63;;;2.50;99.90;;;;;;5114890;27;20615;-77
2020/12/30 08:03:44;;;;;;;48.53;34.97;;;2.70;99.90;;;;;;5122863;28;20469;-78
2020/12/30 08:06:11;;;;;;;48.93;33.53;;;2.70;99.90;;;;;;5125831;28;20498;-76
2020/12/30 08:08:43;;;;;;;50.30;33.50;;;2.70;99.90;;;;;;5127343;27;20501;-75
2020/12/30 08:11:09;;;;;;;52.10;34.70;;;2.80;99.90;;;;;;5119752;28;20483;-76
2020/12/30 08:13:40;;;;;;;51.70;32.03;;;2.90;99.90;;;;;;5122970;28;20463;-74
2020/12/30 08:16:13;;;;;;;41.17;32.37;;;2.80;99.90;;;;;;5119249;27;20456;-77
2020/12/30 08:18:50;;;;;;;48.60;33.13;;;3.00;99.90;;;;;;5114722;28;20830;-77
2020/12/30 08:21:21;;;;;;;39.27;32.10;;;3.10;99.90;;;;;;5122080;28;20479;-78
2020/12/30 08:23:47;;;;;;;46.53;34.40;;;3.10;99.90;;;;;;5117182;28;20544;-79
2020/12/30 08:26:13;;;;;;;49.60;33.43;;;3.10;99.90;;;;;;5121963;28;20456;-77
2020/12/30 08:28:40;;;;;;;49.30;34.53;;;3.20;99.90;;;;;;5119527;28;20811;-76
2020/12/30 08:31:15;;;;;;;50.47;35.50;;;3.30;99.90;;;;;;5123557;27;20460;-76
2020/12/30 08:33:42;;;;;;;41.43;32.60;;;3.30;99.90;;;;;;5122691;28;20455;-76
2020/12/30 08:36:21;;;;;;;38.97;33.53;;;3.30;99.90;;;;;;5129476;27;21163;-78
2020/12/30 08:38:49;;;;;;;41.67;33.50;;;3.40;99.90;;;;;;5124045;27;20548;-75
2020/12/30 08:41:18;;;;;;;43.93;36.03;;;3.50;99.90;;;;;;5117473;28;20489;-78
2020/12/30 08:43:49;;;;;;;46.43;34.07;;;3.60;99.90;;;;;;5122675;27;21010;-75
2020/12/30 08:46:20;;;;;;;51.40;36.97;;;3.60;99.90;;;;;;5121341;27;20516;-76
2020/12/30 08:48:50;;;;;;;45.37;36.10;;;3.70;99.90;;;;;;5128372;27;20452;-75
2020/12/30 08:51:32;;;;;;;44.67;35.93;;;3.60;99.90;;;;;;5124148;27;20452;-78
2020/12/30 08:53:59;;;;;;;49.33;36.07;;;3.70;99.90;;;;;;5121061;27;20457;-79
2020/12/30 08:56:26;;;;;;;48.33;37.37;;;3.70;99.90;;;;;;5121289;27;20517;-79
2020/12/30 08:58:54;;;;;;;41.10;31.97;;;3.70;99.90;;;;;;5121758;27;20467;-80
2020/12/30 09:01:23;;;;;;;48.10;37.90;;;3.80;99.90;;;;;;5116108;27;20499;-80
2020/12/30 09:03:49;;;;;;;44.03;34.63;;;3.80;99.90;;;;;;5128549;27;20566;-76
2020/12/30 09:06:29;;;;;;;44.30;36.47;;;3.80;99.90;;;;;;5125594;27;20516;-78
2020/12/30 09:09:08;;;;;;;51.53;36.60;;;3.70;99.90;;;;;;5124719;27;20461;-79
2020/12/30 09:11:35;;;;;;;43.00;35.17;;;3.90;99.90;;;;;;5127540;27;20451;-79
2020/12/30 09:14:19;;;;;;;44.17;35.30;;;3.90;99.90;;;;;;5126376;27;20461;-80
2020/12/30 09:16:54;;;;;;;44.67;35.17;;;4.00;99.90;;;;;;5121428;27;20522;-79
2020/12/30 09:19:21;;;;;;;40.20;34.73;;;3.90;99.90;;;;;;5125704;27;20460;-79
2020/12/30 09:21:49;;;;;;;47.80;34.20;;;4.00;99.90;;;;;;5121778;27;20472;-77
2020/12/30 09:24:16;;;;;;;48.20;36.13;;;4.00;99.90;;;;;;5118391;27;20559;-76
2020/12/30 09:26:42;;;;;;;45.80;34.07;;;4.10;99.90;;;;;;5120040;27;20464;-80
2020/12/30 09:29:19;;;;;;;45.37;33.57;;;4.00;99.90;;;;;;5123937;27;20453;-78
2020/12/30 09:31:53;;;;;;;43.13;34.50;;;4.00;99.90;;;;;;5137706;27;20467;-77
2020/12/30 09:34:19;;;;;;;44.80;35.37;;;4.00;99.90;;;;;;5126190;27;20460;-78
2020/12/30 09:36:54;;;;;;;43.70;33.13;;;4.00;99.90;;;;;;5118855;27;20461;-76
2020/12/30 09:39:20;;;;;;;47.70;33.37;;;4.00;99.90;;;;;;5120945;27;20477;-77
2020/12/30 09:41:47;;;;;;;41.13;33.13;;;4.10;99.90;;;;;;5124352;27;20515;-78
2020/12/30 09:44:13;;;;;;;42.13;34.70;;;4.20;99.90;;;;;;5122183;27;20457;-76
2020/12/30 09:46:49;;;;;;;42.20;33.10;;;4.20;99.90;;;;;;5116238;27;20495;-80
2020/12/30 09:49:16;;;;;;;37.73;32.93;;;4.20;99.90;;;;;;5119083;27;20503;-79
2020/12/30 09:51:43;;;;;;;46.87;32.43;;;4.30;99.90;;;;;;5123351;27;20945;-79
2020/12/30 09:54:11;;;;;;;37.70;32.37;;;4.20;99.90;;;;;;5122326;27;20983;-76
2020/12/30 09:56:37;;;;;;;31.70;27.30;;;4.30;99.90;;;;;;5123052;27;20460;-78
2020/12/30 09:59:05;;;;;;;37.80;31.50;;;4.30;99.90;;;;;;5122932;27;20669;-78
2020/12/30 10:01:31;;;;;;;37.23;29.43;;;4.30;99.90;;;;;;5126278;27;21048;-79
2020/12/30 10:03:58;;;;;;;39.33;31.23;;;4.20;99.90;;;;;;5121824;27;20457;-79
2020/12/30 10:06:25;;;;;;;38.00;31.87;;;4.20;99.90;;;;;;5120013;27;20457;-79
2020/12/30 10:08:51;;;;;;;38.93;30.43;;;4.10;99.90;;;;;;5123034;27;20465;-76
2020/12/30 10:11:19;;;;;;;40.80;32.30;;;4.10;99.90;;;;;;5123510;27;20971;-78
2020/12/30 10:13:47;;;;;;;43.17;32.20;;;4.30;99.90;;;;;;5125444;27;20472;-78
2020/12/30 10:16:13;;;;;;;43.87;31.90;;;4.40;99.90;;;;;;5126598;27;20481;-75
2020/12/30 10:18:39;;;;;;;35.23;27.80;;;4.50;99.90;;;;;;5124413;27;20456;-79
2020/12/30 10:21:06;;;;;;;42.27;30.67;;;4.50;99.90;;;;;;5121109;27;20458;-80
2020/12/30 10:23:33;;;;;;;41.23;30.93;;;4.60;99.90;;;;;;5120121;27;20515;-78
2020/12/30 10:25:59;;;;;;;37.27;31.10;;;4.70;99.90;;;;;;5125698;27;20468;-77
2020/12/30 10:28:27;;;;;;;36.13;29.80;;;4.80;99.90;;;;;;5119751;27;20585;-80
2020/12/30 10:30:53;;;;;;;37.10;29.47;;;4.90;99.90;;;;;;5118027;27;20464;-78
2020/12/30 10:33:20;;;;;;;33.03;26.67;;;5.00;99.90;;;;;;5117882;27;20457;-76
2020/12/30 10:35:47;;;;;;;33.83;27.30;;;5.10;99.90;;;;;;5118399;27;20552;-79
2020/12/30 10:38:13;;;;;;;40.37;26.97;;;5.20;99.90;;;;;;5120161;27;20576;-78
2020/12/30 10:40:41;;;;;;;30.07;26.37;;;5.30;99.90;;;;;;5121369;27;20496;-78
2020/12/30 10:43:08;;;;;;;36.57;26.13;;;5.30;99.90;;;;;;5118543;27;20484;-76
2020/12/30 10:45:35;;;;;;;36.70;26.10;;;5.30;99.90;;;;;;5119459;27;20472;-77
2020/12/30 10:48:02;;;;;;;37.80;28.13;;;5.30;99.90;;;;;;5124481;27;20536;-78
2020/12/30 10:50:28;;;;;;;32.97;27.87;;;5.30;99.90;;;;;;5126197;27;20860;-76
2020/12/30 10:52:54;;;;;;;26.47;23.30;;;5.40;99.90;;;;;;5117451;27;20469;-76
2020/12/30 10:55:21;;;;;;;29.73;24.77;;;5.50;99.90;;;;;;5118116;27;20501;-77
2020/12/30 10:57:47;;;;;;;26.50;23.77;;;5.60;99.90;;;;;;5116864;27;20456;-76
2020/12/30 11:00:15;;;;;;;31.50;25.97;;;5.80;99.90;;;;;;5117201;27;20464;-77
2020/12/30 11:02:42;;;;;;;29.40;24.60;;;5.90;99.90;;;;;;5122206;27;20480;-79
2020/12/30 11:05:09;;;;;;;29.60;25.30;;;5.80;99.90;;;;;;5118581;27;20460;-76
2020/12/30 11:07:35;;;;;;;28.20;24.60;;;5.90;99.90;;;;;;5118253;27;20457;-75
2020/12/30 11:10:03;;;;;;;29.40;24.10;;;5.70;99.90;;;;;;5118909;27;20968;-79
2020/12/30 11:12:29;;;;;;;26.23;23.50;;;5.90;99.90;;;;;;5117458;27;20469;-74
2020/12/30 11:14:56;;;;;;;32.33;25.67;;;5.80;99.90;;;;;;5115248;27;20500;-78
2020/12/30 11:17:22;;;;;;;27.33;22.80;;;5.70;99.90;;;;;;5127391;27;20457;-77
2020/12/30 11:19:49;;;;;;;28.80;24.70;;;5.60;99.90;;;;;;5124110;27;21288;-77
2020/12/30 11:22:17;;;;;;;29.03;25.97;;;5.60;99.90;;;;;;5120839;27;20476;-79
2020/12/30 11:24:44;;;;;;;32.47;27.13;;;5.60;99.90;;;;;;5121645;27;20466;-79
2020/12/30 11:27:12;;;;;;;26.70;24.00;;;5.40;99.90;;;;;;5122929;27;20562;-76
2020/12/30 11:29:38;;;;;;;33.53;26.10;;;5.50;99.90;;;;;;5119522;27;20465;-77
2020/12/30 11:32:04;;;;;;;27.87;24.40;;;5.40;99.90;;;;;;5127195;27;20460;-73
2020/12/30 11:34:31;;;;;;;27.80;24.40;;;5.40;99.90;;;;;;5119260;27;20829;-75
2020/12/30 11:36:58;;;;;;;32.47;26.97;;;5.40;99.90;;;;;;5119609;27;20966;-76
2020/12/30 11:39:24;;;;;;;25.70;22.63;;;5.50;99.90;;;;;;5118432;27;20484;-75
2020/12/30 11:41:51;;;;;;;31.60;26.13;;;5.50;99.90;;;;;;5124682;27;20519;-77
2020/12/30 11:44:20;;;;;;;34.03;27.87;;;5.50;99.90;;;;;;5116504;27;20825;-77
2020/12/30 11:46:50;;;;;;;36.23;26.77;;;5.50;99.90;;;;;;5122814;27;20490;-74
2020/12/30 11:49:16;;;;;;;29.03;23.57;;;5.50;99.90;;;;;;5120421;28;20466;-76
2020/12/30 11:51:43;;;;;;;29.33;26.13;;;5.40;99.90;;;;;;5123667;27;20465;-77
2020/12/30 11:54:11;;;;;;;30.40;25.00;;;5.50;99.90;;;;;;5122348;27;20514;-77
2020/12/30 11:56:37;;;;;;;31.47;22.47;;;5.50;99.90;;;;;;5123410;28;20460;-76
2020/12/30 11:59:03;;;;;;;29.23;25.63;;;5.50;99.90;;;;;;5118579;28;20548;-75
2020/12/30 12:01:35;;;;;;;29.57;26.23;;;5.40;99.90;;;;;;5122351;27;20798;-78
2020/12/30 12:04:02;;;;;;;32.40;29.00;;;5.40;99.90;;;;;;5121430;28;20509;-78
2020/12/30 12:06:29;;;;;;;31.50;28.40;;;5.60;99.90;;;;;;5123543;28;20465;-79
2020/12/30 12:08:56;;;;;;;34.70;29.40;;;5.30;99.90;;;;;;5120991;28;20460;-74
2020/12/30 12:11:23;;;;;;;33.40;27.27;;;5.20;99.90;;;;;;5121951;28;20456;-75
2020/12/30 12:13:49;;;;;;;35.83;27.67;;;5.20;99.90;;;;;;5113901;28;20529;-75
2020/12/30 12:16:16;;;;;;;35.93;30.50;;;5.00;99.90;;;;;;5116422;27;20829;-79
2020/12/30 12:18:43;;;;;;;37.13;30.87;;;5.00;99.90;;;;;;5122819;27;20902;-76
2020/12/30 12:21:09;;;;;;;32.93;28.07;;;4.90;99.90;;;;;;5130320;27;20977;-78
2020/12/30 12:23:36;;;;;;;28.13;25.20;;;4.90;99.90;;;;;;5129641;27;20487;-78
2020/12/30 12:26:03;;;;;;;34.43;27.83;;;4.80;99.90;;;;;;5120307;27;20850;-77
2020/12/30 12:28:58;;;;;;;29.07;26.00;;;4.90;99.90;;;;;;5121620;27;20543;-74
2020/12/30 12:31:24;;;;;;;29.90;26.73;;;4.90;99.90;;;;;;5118574;27;20460;-79
2020/12/30 12:33:51;;;;;;;32.53;27.13;;;4.90;99.90;;;;;;5122110;27;20456;-77
2020/12/30 12:36:17;;;;;;;28.07;25.27;;;4.90;99.90;;;;;;5121803;27;20873;-75
2020/12/30 12:38:45;;;;;;;30.00;25.30;;;4.80;99.90;;;;;;5120031;27;20468;-77
2020/12/30 12:41:14;;;;;;;28.83;25.80;;;4.90;99.90;;;;;;5122731;27;20491;-76
2020/12/30 12:43:41;;;;;;;32.73;28.03;;;5.00;99.90;;;;;;5126533;27;20567;-79